Time;durP1;ratioP1;P1;durP2;ratioP2;P2;SDS_P1;SDS_P2;PMS_P1;PMS_P2;Temp;Humidity;BMP_temperature;BMP_pressure;BME280_temperature;BME280_humidity;BME280_pressure;Samples;Min_cycle;Max_cycle;Signal;HPM_P1;HPM_P2
2022/10/03 00:02:46;;;;;;;15.55;8.25;;;;;;;6.71;100.00;102573.66;5013901;28;20112;-74
2022/10/03 00:05:49;;;;;;;18.48;8.88;;;;;;;6.75;100.00;102586.72;4982638;28;20126;-73
2022/10/03 00:08:49;;;;;;;24.17;9.48;;;;;;;6.73;100.00;102578.03;5014016;28;20026;-73
2022/10/03 00:11:31;;;;;;;20.25;8.88;;;;;;;6.71;100.00;102584.03;4983153;28;20034;-73
2022/10/03 00:14:04;;;;;;;20.20;9.23;;;;;;;6.66;100.00;102570.97;5013445;28;20014;-73
2022/10/03 00:16:44;;;;;;;25.65;8.25;;;;;;;6.68;100.00;102579.66;5011654;28;20026;-73
2022/10/03 00:19:35;;;;;;;16.05;8.77;;;;;;;6.67;100.00;102571.84;5013799;28;20374;-73
2022/10/03 00:22:17;;;;;;;20.58;10.23;;;;;;;6.65;100.00;102578.72;5013516;28;20030;-73
2022/10/03 00:24:57;;;;;;;20.98;9.35;;;;;;;6.64;100.00;102584.72;5012343;28;20110;-74
2022/10/03 00:27:37;;;;;;;22.40;9.88;;;;;;;6.63;100.00;102586.47;5013229;28;20109;-73
2022/10/03 00:30:22;;;;;;;22.67;9.13;;;;;;;6.63;100.00;102586.47;5003899;28;20125;-73
2022/10/03 00:33:19;;;;;;;21.40;9.48;;;;;;;6.61;100.00;102588.16;5012150;28;20033;-73
2022/10/03 00:36:05;;;;;;;19.42;8.90;;;;;;;6.58;100.00;102590.69;5012228;28;20473;-73
2022/10/03 00:38:46;;;;;;;17.55;8.68;;;;;;;6.57;100.00;102592.41;5006412;28;20504;-73
2022/10/03 00:41:33;;;;;;;21.75;9.80;;;;;;;6.55;100.00;102593.22;5012507;28;20113;-73
2022/10/03 00:44:10;;;;;;;17.65;9.25;;;;;;;6.53;100.00;102598.34;5002177;28;20446;-73
2022/10/03 00:47:01;;;;;;;19.75;10.20;;;;;;;6.51;100.00;102601.78;5011317;28;20089;-74
2022/10/03 00:49:57;;;;;;;19.27;8.50;;;;;;;6.47;100.00;102600.81;5012980;28;20397;-73
2022/10/03 00:52:42;;;;;;;23.05;9.55;;;;;;;6.42;100.00;102606.75;5002611;28;20046;-73
2022/10/03 00:55:37;;;;;;;16.52;9.00;;;;;;;6.32;100.00;102601.34;5012377;28;20105;-73
2022/10/03 00:58:19;;;;;;;21.55;9.57;;;;;;;6.40;100.00;102608.41;5008293;28;20050;-73
2022/10/03 01:00:50;;;;;;;21.83;9.35;;;;;;;6.39;100.00;102612.72;5001981;28;20026;-73
2022/10/03 01:03:31;;;;;;;22.38;9.80;;;;;;;6.32;100.00;102610.84;5017014;28;20105;-74
2022/10/03 01:06:02;;;;;;;24.80;9.32;;;;;;;6.35;100.00;102616.09;5011100;28;20548;-73
2022/10/03 01:08:50;;;;;;;18.45;9.57;;;;;;;6.33;100.00;102625.53;5011486;28;20084;-73
2022/10/03 01:11:23;;;;;;;23.73;10.52;;;;;;;6.30;100.00;102623.75;5011216;28;20484;-74
2022/10/03 01:14:21;;;;;;;18.25;9.07;;;;;;;6.30;100.00;102630.66;4993820;28;20088;-73
2022/10/03 01:17:18;;;;;;;18.55;9.80;;;;;;;6.28;100.00;102635.81;5015926;28;20033;-73
2022/10/03 01:19:53;;;;;;;18.98;9.45;;;;;;;6.24;100.00;102628.78;4984063;28;20470;-73
2022/10/03 01:22:36;;;;;;;24.13;10.45;;;;;;;6.27;100.00;102640.94;5011641;28;20022;-73
2022/10/03 01:25:46;;;;;;;19.58;9.57;;;;;;;6.23;100.00;102640.00;5007645;28;20026;-73
2022/10/03 01:31:41;;;;;;;18.33;9.98;;;;;;;6.20;100.00;102645.09;5012132;28;20500;-73
2022/10/03 01:34:21;;;;;;;22.10;9.48;;;;;;;6.19;100.00;102639.91;5011796;28;20037;-73
2022/10/03 01:37:10;;;;;;;20.35;9.52;;;;;;;6.21;100.00;102640.78;5010508;28;20030;-73
2022/10/03 01:39:47;;;;;;;23.52;10.07;;;;;;;6.17;100.00;102631.22;5009473;28;20041;-73
2022/10/03 01:42:39;;;;;;;18.55;9.57;;;;;;;6.20;100.00;102639.91;5014921;28;20025;-73
2022/10/03 01:45:28;;;;;;;23.90;10.05;;;;;;;6.13;100.00;102640.63;5011597;28;20022;-74
2022/10/03 01:48:32;;;;;;;27.60;10.15;;;;;;;6.14;100.00;102652.72;5011702;28;20038;-73
2022/10/03 01:51:23;;;;;;;20.42;10.18;;;;;;;6.12;100.00;102650.97;4991311;28;20113;-73
2022/10/03 01:54:04;;;;;;;23.52;10.13;;;;;;;6.07;100.00;102645.66;5010961;28;20101;-73
2022/10/03 01:56:43;;;;;;;21.95;9.68;;;;;;;6.08;100.00;102648.31;5011160;28;20464;-73
2022/10/03 01:59:46;;;;;;;22.08;10.02;;;;;;;6.06;100.00;102643.91;5011296;28;20441;-73
2022/10/03 02:02:34;;;;;;;24.35;9.75;;;;;;;6.06;100.00;102642.19;4999686;28;20167;-73
2022/10/03 02:05:11;;;;;;;17.98;9.45;;;;;;;6.06;100.00;102643.91;5009017;28;20160;-73
2022/10/03 02:07:49;;;;;;;16.58;9.32;;;;;;;6.04;100.00;102643.84;5011603;28;20425;-73
2022/10/03 02:10:29;;;;;;;19.83;10.35;;;;;;;6.04;100.00;102646.44;5010659;28;20045;-73
2022/10/03 02:13:21;;;;;;;20.02;10.80;;;;;;;6.00;100.00;102646.34;5011582;28;20137;-73
2022/10/03 02:15:54;;;;;;;27.38;10.48;;;;;;;6.02;100.00;102648.16;5004427;28;20038;-74
2022/10/03 02:18:33;;;;;;;17.67;10.23;;;;;;;6.01;100.00;102650.69;5012059;28;20076;-73
2022/10/03 02:21:21;;;;;;;23.40;10.98;;;;;;;5.98;100.00;102655.78;5022898;28;20038;-74
2022/10/03 02:23:49;;;;;;;21.83;10.15;;;;;;;5.96;100.00;102657.47;5007040;28;20027;-74
2022/10/03 02:26:53;;;;;;;20.90;11.10;;;;;;;5.93;100.00;102650.50;5001486;28;20033;-73
2022/10/03 02:29:33;;;;;;;18.23;11.00;;;;;;;5.93;100.00;102652.22;5007479;28;20498;-74
2022/10/03 02:32:15;;;;;;;27.20;12.35;;;;;;;5.94;100.00;102638.44;5007995;28;20044;-73
2022/10/03 02:35:13;;;;;;;28.95;12.15;;;;;;;5.95;100.00;102647.94;5009681;28;20044;-73
2022/10/03 02:38:04;;;;;;;23.77;11.43;;;;;;;5.92;100.00;102650.41;5012324;28;20390;-73
2022/10/03 02:40:55;;;;;;;22.23;11.52;;;;;;;5.89;100.00;102651.25;5014264;28;20034;-73
2022/10/03 02:43:46;;;;;;;19.42;11.70;;;;;;;5.89;100.00;102652.97;5014155;28;20355;-73
2022/10/03 02:46:18;;;;;;;23.20;12.00;;;;;;;5.87;100.00;102651.19;5012731;28;20096;-74
2022/10/03 02:49:10;;;;;;;27.85;12.80;;;;;;;5.89;100.00;102648.66;5015417;28;20105;-73
2022/10/03 02:52:09;;;;;;;25.65;12.02;;;;;;;5.83;100.00;102644.19;4994320;28;20053;-74
2022/10/03 02:54:55;;;;;;;25.80;12.18;;;;;;;5.86;100.00;102648.56;5013119;28;20045;-73
2022/10/03 02:57:53;;;;;;;31.23;12.63;;;;;;;5.82;100.00;102645.03;5008397;28;20072;-73
2022/10/03 03:00:38;;;;;;;28.10;12.07;;;;;;;5.81;100.00;102652.75;5012858;28;20420;-74
2022/10/03 03:03:37;;;;;;;27.13;12.77;;;;;;;5.76;100.00;102638.84;5017195;28;20471;-74
2022/10/03 03:06:10;;;;;;;24.77;11.68;;;;;;;5.76;100.00;102650.06;5013918;28;20048;-73
2022/10/03 03:08:42;;;;;;;29.95;14.00;;;;;;;5.74;100.00;102645.69;5012336;28;20474;-73
2022/10/03 03:11:26;;;;;;;20.98;12.30;;;;;;;5.74;100.00;102650.84;5014199;28;20433;-74
2022/10/03 03:14:28;;;;;;;23.33;12.02;;;;;;;5.71;100.00;102651.63;5006683;28;20034;-74
2022/10/03 03:17:09;;;;;;;25.55;13.13;;;;;;;5.72;100.00;102658.59;5014153;28;20469;-73
2022/10/03 03:20:10;;;;;;;21.13;12.73;;;;;;;5.67;100.00;102648.94;5012696;28;20030;-73
2022/10/03 03:22:55;;;;;;;23.50;13.10;;;;;;;5.67;100.00;102649.81;5001491;28;20042;-73
2022/10/03 03:25:42;;;;;;;23.95;12.68;;;;;;;5.67;100.00;102659.28;5013409;28;20029;-73
2022/10/03 03:28:32;;;;;;;19.70;11.70;;;;;;;5.66;100.00;102662.69;5011804;28;20034;-73
2022/10/03 03:31:04;;;;;;;27.58;13.15;;;;;;;5.65;100.00;102654.06;5003936;28;20030;-74
2022/10/03 03:33:53;;;;;;;26.02;12.75;;;;;;;5.63;100.00;102653.16;5012779;28;20052;-73
2022/10/03 03:36:50;;;;;;;25.88;12.73;;;;;;;5.60;100.00;102659.13;5014305;28;20026;-73
2022/10/03 03:39:45;;;;;;;27.58;12.88;;;;;;;5.59;100.00;102661.66;5013828;28;20081;-73
2022/10/03 03:42:21;;;;;;;28.15;13.52;;;;;;;5.55;100.00;102654.66;5012740;28;20034;-73
2022/10/03 03:45:13;;;;;;;23.55;13.10;;;;;;;5.55;100.00;102655.53;5013519;28;20041;-73
2022/10/03 03:47:54;;;;;;;20.63;13.10;;;;;;;5.54;100.00;102660.69;5006881;28;20057;-73
2022/10/03 03:50:46;;;;;;;28.13;12.80;;;;;;;5.52;100.00;102662.34;5013036;28;20117;-73
2022/10/03 03:53:24;;;;;;;24.35;13.30;;;;;;;5.48;100.00;102652.75;5013769;28;20025;-73
2022/10/03 03:55:58;;;;;;;27.63;13.50;;;;;;;5.50;100.00;102656.28;5013056;28;20037;-73
2022/10/03 03:58:56;;;;;;;27.70;13.50;;;;;;;5.44;100.00;102656.97;5012396;28;20406;-73
2022/10/03 04:01:22;;;;;;;23.80;13.43;;;;;;;5.47;100.00;102669.13;5012615;28;20512;-73
2022/10/03 04:04:22;;;;;;;26.15;12.63;;;;;;;5.49;100.00;102670.91;5014212;28;20034;-74
2022/10/03 04:07:17;;;;;;;20.52;12.30;;;;;;;5.46;100.00;102668.25;5001709;28;20033;-73
2022/10/03 04:10:13;;;;;;;23.65;12.98;;;;;;;5.44;100.00;102659.56;5012824;28;20034;-73
2022/10/03 04:12:39;;;;;;;21.05;13.18;;;;;;;5.47;100.00;102672.59;5013201;28;20033;-73
2022/10/03 04:15:29;;;;;;;22.35;12.60;;;;;;;5.44;100.00;102667.31;5012138;28;20022;-73
2022/10/03 04:21:11;;;;;;;22.67;12.65;;;;;;;5.37;100.00;102668.88;5009186;28;20064;-73
2022/10/03 04:23:49;;;;;;;23.10;12.95;;;;;;;5.39;100.00;102674.06;5014172;28;20392;-73
2022/10/03 04:26:33;;;;;;;20.23;12.00;;;;;;;5.45;100.00;102673.38;5006227;28;20032;-73
2022/10/03 04:29:07;;;;;;;;;;;;;;;5.41;100.00;102677.59;5012985;28;20084;-73
2022/10/03 04:31:42;;;;;;;21.98;11.55;;;;;;;5.40;100.00;102681.91;5005859;28;20427;-73
2022/10/03 04:34:24;;;;;;;21.75;11.80;;;;;;;5.39;100.00;102676.66;5013456;28;20028;-73
2022/10/03 04:37:23;;;;;;;22.02;12.07;;;;;;;5.38;100.00;102675.78;5012833;28;20061;-74
2022/10/03 04:40:26;;;;;;;24.92;12.48;;;;;;;5.39;100.00;102674.97;4950736;28;20116;-73
2022/10/03 04:43:29;;;;;;;25.57;12.27;;;;;;;5.40;100.00;102674.13;4965347;28;20541;-73
2022/10/03 04:46:15;;;;;;;30.60;11.43;;;;;;;5.39;100.00;102677.56;5012340;28;20482;-73
2022/10/03 04:49:13;;;;;;;24.67;11.45;;;;;;;5.34;100.00;102661.03;5010676;28;20053;-73
2022/10/03 04:51:51;;;;;;;24.48;12.15;;;;;;;5.44;100.00;102677.69;5015661;28;20034;-73
2022/10/03 04:54:26;;;;;;;24.45;12.60;;;;;;;5.55;100.00;102671.06;5013017;28;20465;-73
2022/10/03 04:57:07;;;;;;;27.60;13.40;;;;;;;5.62;100.00;102666.91;5012768;28;20370;-73
2022/10/03 04:59:59;;;;;;;24.70;13.18;;;;;;;5.63;100.00;102669.56;4998871;28;20036;-73
2022/10/03 05:02:51;;;;;;;26.13;12.93;;;;;;;5.59;100.00;102677.19;5012679;28;20026;-74
2022/10/03 05:05:54;;;;;;;31.55;13.25;;;;;;;5.43;100.00;102657.81;4993053;28;20026;-73
2022/10/03 05:08:36;;;;;;;28.50;12.73;;;;;;;5.47;100.00;102680.34;5011725;28;20072;-73
2022/10/03 05:11:32;;;;;;;26.98;13.80;;;;;;;5.48;100.00;102682.09;5012836;28;20026;-73
2022/10/03 05:14:12;;;;;;;20.20;12.75;;;;;;;5.46;100.00;102688.94;5001694;28;20092;-74
2022/10/03 05:17:00;;;;;;;19.02;12.63;;;;;;;5.39;100.00;102685.31;5011921;28;20393;-73
2022/10/03 05:19:42;;;;;;;23.88;12.60;;;;;;;5.41;100.00;102687.94;5011548;28;20025;-73
2022/10/03 05:22:19;;;;;;;22.40;11.77;;;;;;;5.39;100.00;102685.31;5005421;28;20453;-74
2022/10/03 05:24:59;;;;;;;25.88;12.10;;;;;;;5.43;100.00;102698.31;5006443;28;20038;-73
2022/10/03 05:27:41;;;;;;;25.15;12.38;;;;;;;5.39;100.00;102698.25;5011766;28;20088;-73
2022/10/03 05:30:14;;;;;;;21.77;11.88;;;;;;;5.43;100.00;102693.13;5012575;28;20056;-73
2022/10/03 05:32:44;;;;;;;30.92;13.25;;;;;;;5.40;100.00;102697.41;5011656;28;20112;-73
2022/10/03 05:35:50;;;;;;;21.60;12.50;;;;;;;5.40;100.00;102706.88;5012676;28;20044;-73
2022/10/03 05:38:15;;;;;;;29.27;13.10;;;;;;;5.43;100.00;102703.47;5011974;28;20386;-73
2022/10/03 05:40:58;;;;;;;24.87;12.70;;;;;;;5.40;100.00;102707.75;4996949;28;20026;-73
2022/10/03 05:43:35;;;;;;;23.90;13.40;;;;;;;5.39;100.00;102703.44;5011973;28;20273;-73
2022/10/03 05:46:19;;;;;;;26.00;13.23;;;;;;;5.40;100.00;102718.09;5001762;28;20128;-73
2022/10/03 05:49:15;;;;;;;20.92;12.70;;;;;;;5.35;100.00;102708.47;5011394;28;20030;-73
2022/10/03 05:52:11;;;;;;;25.15;12.95;;;;;;;5.42;100.00;102718.13;5011953;28;20288;-73
2022/10/03 05:55:13;;;;;;;26.85;13.13;;;;;;;5.47;100.00;102710.50;4999249;28;20034;-73
2022/10/03 05:58:16;;;;;;;21.63;13.57;;;;;;;5.48;100.00;102720.03;4997146;28;20068;-73
2022/10/03 06:01:12;;;;;;;25.42;13.10;;;;;;;5.49;100.00;102706.25;5011325;28;20049;-74
2022/10/03 06:04:14;;;;;;;28.88;14.95;;;;;;;5.67;100.00;102713.63;5011578;28;20084;-74
2022/10/03 06:06:58;;;;;;;24.67;14.38;;;;;;;5.71;100.00;102723.22;5011319;28;20551;-73
2022/10/03 06:09:52;;;;;;;26.50;13.90;;;;;;;5.68;100.00;102726.59;5010966;28;20042;-74
2022/10/03 06:12:17;;;;;;;27.90;15.23;;;;;;;5.70;100.00;102737.00;5011291;28;20462;-73
2022/10/03 06:15:13;;;;;;;34.30;14.60;;;;;;;5.73;100.00;102716.41;5009088;28;20033;-73
2022/10/03 06:18:03;;;;;;;24.88;14.10;;;;;;;5.75;100.00;102715.56;5013679;28;20315;-73
2022/10/03 06:20:58;;;;;;;27.00;15.95;;;;;;;5.86;100.00;102724.50;5002856;28;20083;-73
2022/10/03 06:23:34;;;;;;;29.85;15.63;;;;;;;5.94;100.00;102729.91;5009423;28;20096;-73
2022/10/03 06:26:18;;;;;;;28.42;15.93;;;;;;;6.03;100.00;102729.28;5013773;28;20069;-73
2022/10/03 06:29:27;;;;;;;30.77;16.45;;;;;;;6.08;100.00;102731.16;5010887;28;20386;-73
2022/10/03 06:32:07;;;;;;;30.50;15.80;;;;;;;6.10;100.00;102738.94;5011664;28;20022;-74
2022/10/03 06:34:51;;;;;;;28.13;16.60;;;;;;;6.08;100.00;102733.75;5004313;28;20037;-73
2022/10/03 06:37:54;;;;;;;28.45;16.75;;;;;;;6.10;100.00;102736.38;5009803;28;20068;-73
2022/10/03 06:40:36;;;;;;;34.25;16.30;;;;;;;6.10;100.00;102733.78;5009428;28;20498;-73
2022/10/03 06:43:33;;;;;;;35.22;16.05;;;;;;;6.03;100.00;102724.09;5010356;28;20068;-74
2022/10/03 06:46:36;;;;;;;33.90;16.70;;;;;;;6.13;100.00;102738.16;5003289;28;20054;-73
2022/10/03 06:49:36;;;;;;;30.80;18.33;;;;;;;6.17;100.00;102733.09;5011306;28;20107;-73
2022/10/03 06:52:23;;;;;;;40.40;18.75;;;;;;;6.22;100.00;102739.25;5000733;28;20125;-73
2022/10/03 06:55:26;;;;;;;43.72;20.23;;;;;;;6.28;100.00;102736.81;5001831;28;20030;-73
2022/10/03 06:58:22;;;;;;;35.10;19.05;;;;;;;6.34;100.00;102733.50;5004896;28;20053;-73
2022/10/03 07:00:56;;;;;;;37.22;20.02;;;;;;;6.42;100.00;102744.06;5007315;28;20081;-74
2022/10/03 07:03:24;;;;;;;40.00;20.35;;;;;;;6.50;100.00;102740.78;4997063;28;20030;-73
2022/10/03 07:06:32;;;;;;;44.13;22.67;;;;;;;6.57;100.00;102752.16;5002832;28;20041;-74
2022/10/03 07:09:28;;;;;;;43.15;22.90;;;;;;;6.66;100.00;102747.22;5010439;28;20040;-73
2022/10/03 07:12:32;;;;;;;43.20;23.65;;;;;;;6.73;100.00;102753.41;4997606;28;20030;-73
2022/10/03 07:15:28;;;;;;;47.42;25.38;;;;;;;6.84;100.00;102749.38;5009249;28;20454;-73
2022/10/03 07:18:15;;;;;;;47.33;25.40;;;;;;;6.94;100.00;102750.44;4998555;28;20034;-73
2022/10/03 07:21:11;;;;;;;42.60;25.27;;;;;;;6.96;100.00;102747.00;5000791;28;20055;-74
2022/10/03 07:24:01;;;;;;;46.67;24.90;;;;;;;7.02;100.00;102756.66;5007569;28;20025;-74
2022/10/03 07:26:54;;;;;;;53.85;27.38;;;;;;;7.18;100.00;102758.75;5013763;28;20481;-73
2022/10/03 07:29:34;;;;;;;52.70;28.40;;;;;;;7.30;100.00;102762.44;5013985;28;20381;-73
2022/10/03 07:32:31;;;;;;;51.75;29.23;;;;;;;7.39;100.00;102752.22;5014370;28;20036;-74
2022/10/03 07:38:56;;;;;;;55.28;30.30;;;;;;;7.53;100.00;102761.19;5006252;28;20108;-73
2022/10/03 07:38:59;;;;;;;58.75;31.88;;;;;;;7.65;100.00;102764.03;5014394;28;20041;-73
2022/10/03 07:42:03;;;;;;;59.47;30.50;;;;;;;7.74;100.00;102761.59;5004405;28;20493;-73
2022/10/03 07:44:52;;;;;;;64.63;31.65;;;;;;;7.91;100.00;102761.94;5007192;28;20057;-73
2022/10/03 07:48:04;;;;;;;63.85;33.65;;;;;;;8.05;100.00;102772.56;4999275;28;20137;-73
2022/10/03 07:50:44;;;;;;;71.88;34.10;;;;;;;8.16;100.00;102775.34;5013901;28;20397;-73
2022/10/03 07:53:36;;;;;;;67.15;36.70;;;;;;;8.26;100.00;102778.97;5014196;28;20117;-74
2022/10/03 07:56:24;;;;;;;74.63;36.30;;;;;;;8.43;100.00;102787.94;5013298;28;20484;-73
2022/10/03 07:59:05;;;;;;;69.18;35.25;;;;;;;8.47;100.00;102781.97;5014114;28;20041;-73
2022/10/03 08:01:53;;;;;;;72.57;37.63;;;;;;;8.57;100.00;102780.38;5011539;28;20096;-73
2022/10/03 08:04:53;;;;;;;75.43;36.30;;;;;;;8.66;100.00;102786.59;5013837;28;20037;-73
2022/10/03 08:07:27;;;;;;;74.07;37.00;;;;;;;8.80;100.00;102796.34;5011772;28;20066;-74
2022/10/03 08:10:20;;;;;;;80.30;38.45;;;;;;;8.93;100.00;102785.28;5011262;28;20040;-73
2022/10/03 08:12:56;;;;;;;74.75;39.15;;;;;;;9.00;100.00;102786.22;5007130;28;20067;-74
2022/10/03 08:15:35;;;;;;;79.18;40.40;;;;;;;9.18;100.00;102783.84;5000275;28;20099;-73
2022/10/03 08:18:15;;;;;;;81.20;40.50;;;;;;;9.29;100.00;102782.28;5013954;28;20029;-73
2022/10/03 08:21:00;;;;;;;84.25;42.05;;;;;;;9.49;100.00;102781.66;5004641;28;20038;-73
2022/10/03 08:23:34;;;;;;;87.20;43.55;;;;;;;9.63;100.00;102771.41;5006792;28;20037;-73
2022/10/03 08:26:16;;;;;;;77.30;42.00;;;;;;;9.68;100.00;102775.81;5004289;28;20036;-73
2022/10/03 08:28:57;;;;;;;81.63;42.55;;;;;;;9.69;100.00;102766.25;5011268;28;20025;-73
2022/10/03 08:31:44;;;;;;;75.13;39.33;;;;;;;9.74;100.00;102780.19;5013123;28;20057;-73
2022/10/03 08:34:28;;;;;;;65.10;35.83;;;;;;;9.87;100.00;102776.84;5010121;28;20022;-73
2022/10/03 08:37:12;;;;;;;78.68;37.63;;;;;;;9.94;100.00;102776.09;5008136;28;20045;-73
2022/10/03 08:39:44;;;;;;;66.93;37.72;;;;;;;10.08;100.00;102777.09;5003141;28;20069;-74
2022/10/03 08:42:18;;;;;;;69.38;37.00;;;;;;;10.15;100.00;102779.75;5010548;28;20414;-73
2022/10/03 08:45:32;;;;;;;62.47;35.50;;;;;;;10.30;100.00;102779.94;5012622;28;20037;-73
2022/10/03 08:48:47;;;;;;;56.10;32.20;;;;;;;10.45;100.00;102782.66;5007381;28;20490;-73
2022/10/03 08:51:46;;;;;;;57.42;30.42;;;;;;;10.49;100.00;102780.94;5009594;28;20026;-73
2022/10/03 08:54:30;;;;;;;58.22;31.27;;;;;;;10.60;100.00;102786.25;5013253;28;20025;-73
2022/10/03 08:57:20;;;;;;;44.60;24.88;;;;;;;10.74;100.00;102782.00;5012591;28;20033;-73
2022/10/03 09:00:07;;;;;;;43.25;23.42;;;;;;;10.95;100.00;102789.06;5000060;28;20030;-73
2022/10/03 09:03:00;;;;;;;37.70;18.73;;;;;;;11.13;100.00;102786.56;5009999;28;20030;-73
2022/10/03 09:05:32;;;;;;;25.83;15.85;;;;;;;11.23;100.00;102783.16;5001559;28;20374;-73
2022/10/03 09:08:01;;;;;;;25.17;13.10;;;;;;;11.37;100.00;102783.19;5010972;28;20026;-73
2022/10/03 09:10:57;;;;;;;23.77;11.60;;;;;;;11.50;100.00;102781.50;5011800;28;20045;-73
2022/10/03 09:13:22;;;;;;;26.60;13.57;;;;;;;11.61;100.00;102782.44;5012102;28;20068;-74
2022/10/03 09:16:03;;;;;;;23.93;13.37;;;;;;;11.71;100.00;102789.44;5012860;28;20053;-73
2022/10/03 09:18:54;;;;;;;26.20;14.13;;;;;;;11.72;100.00;102783.31;5008195;28;20685;-73
2022/10/03 09:21:44;;;;;;;26.80;12.80;;;;;;;12.00;100.00;102790.38;5009953;28;20104;-74
2022/10/03 09:24:52;;;;;;;22.65;11.70;;;;;;;12.29;100.00;102787.78;5012670;28;20026;-74
2022/10/03 09:27:30;;;;;;;25.90;13.55;;;;;;;12.70;100.00;102786.91;5012406;28;20470;-74
2022/10/03 09:30:18;;;;;;;23.73;12.82;;;;;;;12.99;100.00;102777.25;5012192;28;20053;-73
2022/10/03 09:33:06;;;;;;;26.30;12.25;;;;;;;13.23;100.00;102770.19;5002176;28;20026;-73
2022/10/03 09:36:04;;;;;;;20.02;12.00;;;;;;;13.42;100.00;102755.31;4998289;28;20084;-73
2022/10/03 09:38:48;;;;;;;15.07;6.60;;;;;;;13.64;100.00;102758.69;5006014;28;20033;-74
2022/10/03 09:41:40;;;;;;;15.32;8.98;;;;;;;13.81;100.00;102759.47;5012154;28;20076;-73
2022/10/03 09:44:24;;;;;;;17.55;9.30;;;;;;;13.79;100.00;102745.47;5011930;28;20478;-74
2022/10/03 09:47:23;;;;;;;17.88;7.75;;;;;;;13.86;100.00;102754.16;5010992;28;20049;-74
2022/10/03 09:50:18;;;;;;;14.32;7.30;;;;;;;13.84;100.00;102762.06;5011542;28;20034;-74
2022/10/03 09:53:37;;;;;;;10.75;5.28;;;;;;;13.89;100.00;102751.53;4983644;28;20041;-74
2022/10/03 09:56:46;;;;;;;10.32;4.22;;;;;;;14.03;100.00;102753.19;5012074;28;20549;-74
2022/10/03 09:59:37;;;;;;;11.50;4.50;;;;;;;14.12;100.00;102751.34;5010390;28;20034;-74
2022/10/03 10:02:37;;;;;;;16.83;5.85;;;;;;;14.24;100.00;102748.66;5002675;28;20026;-74
2022/10/03 10:05:30;;;;;;;13.27;4.88;;;;;;;14.25;100.00;102742.50;5011210;28;20041;-74
2022/10/03 10:08:10;;;;;;;7.95;3.97;;;;;;;14.32;100.00;102743.31;5010248;28;20141;-74
2022/10/03 10:10:54;;;;;;;10.30;4.20;;;;;;;14.44;100.00;102743.22;5011681;28;20379;-74
2022/10/03 10:13:37;;;;;;;9.00;4.38;;;;;;;14.47;100.00;102745.81;5011325;28;20054;-73
2022/10/03 10:16:28;;;;;;;11.98;5.28;;;;;;;14.60;100.00;102741.34;5011612;28;20052;-74
2022/10/03 10:19:19;;;;;;;16.38;5.28;;;;;;;14.76;100.00;102745.56;5010018;28;20080;-73
2022/10/03 10:22:07;;;;;;;9.55;4.43;;;;;;;14.90;100.00;102743.63;5009902;28;20084;-74
2022/10/03 10:24:45;;;;;;;15.35;5.00;;;;;;;14.82;100.00;102742.00;5005508;28;20061;-74
2022/10/03 10:27:37;;;;;;;12.55;4.55;;;;;;;14.77;100.00;102751.69;4998263;28;20029;-74
2022/10/03 10:30:33;;;;;;;7.20;3.83;;;;;;;14.77;100.00;102749.91;5010575;28;20374;-74
2022/10/03 10:33:23;;;;;;;16.13;3.42;;;;;;;14.67;100.00;102743.03;5011417;28;20030;-73
2022/10/03 10:36:26;;;;;;;10.95;2.88;;;;;;;14.77;100.00;102730.66;5003472;28;20462;-73
2022/10/03 10:39:16;;;;;;;12.57;2.90;;;;;;;15.05;100.00;102729.47;5007328;28;20125;-74
2022/10/03 10:42:14;;;;;;;11.07;3.60;;;;;;;15.27;100.00;102734.44;5010435;28;20041;-74
2022/10/03 10:45:14;;;;;;;9.07;3.33;;;;;;;15.43;100.00;102741.22;5001445;28;20381;-73
2022/10/03 10:48:17;;;;;;;7.68;2.42;;;;;;;15.47;100.00;102735.06;4995990;28;20089;-74
2022/10/03 10:51:04;;;;;;;10.85;2.60;;;;;;;15.50;100.00;102742.91;5009790;28;20088;-73
2022/10/03 10:53:51;;;;;;;8.23;2.15;;;;;;;15.74;100.00;102740.84;5010000;28;20045;-73
2022/10/03 10:56:44;;;;;;;6.97;2.38;;;;;;;15.81;100.00;102743.34;5002684;28;20485;-79
2022/10/03 10:59:34;;;;;;;6.88;3.15;;;;;;;15.72;100.00;102732.09;5015029;28;20512;-73
2022/10/03 11:02:42;;;;;;;7.35;2.33;;;;;;;15.63;100.00;102738.31;5003516;28;20427;-73
2022/10/03 11:05:33;;;;;;;9.52;2.97;;;;;;;15.56;100.00;102739.31;5004347;28;20048;-74
2022/10/03 11:08:36;;;;;;;8.23;2.17;;;;;;;15.40;100.00;102749.16;5014421;28;20058;-79
2022/10/03 11:11:26;;;;;;;7.50;1.90;;;;;;;15.21;100.00;102751.19;5014617;28;20478;-73
2022/10/03 11:14:00;;;;;;;10.02;2.58;;;;;;;15.32;100.00;102751.91;5003795;28;20030;-74
2022/10/03 11:16:44;;;;;;;10.52;2.30;;;;;;;15.62;100.00;102740.09;5014258;28;20026;-74
2022/10/03 11:19:43;;;;;;;7.82;2.22;;;;;;;15.97;100.00;102744.00;5014509;28;20088;-73
2022/10/03 11:22:36;;;;;;;4.10;1.60;;;;;;;15.86;100.00;102735.41;4999470;28;20037;-73
2022/10/03 11:25:11;;;;;;;8.55;1.80;;;;;;;15.39;100.00;102731.66;5013145;28;20045;-74
2022/10/03 11:28:00;;;;;;;4.35;1.88;;;;;;;15.02;100.00;102732.13;5006703;28;20050;-73
2022/10/03 11:30:55;;;;;;;4.40;1.55;;;;;;;14.65;100.00;102711.56;5010239;28;20500;-74
2022/10/03 11:33:42;;;;;;;9.93;1.92;;;;;;;14.97;100.00;102718.19;5010461;28;20029;-73
2022/10/03 11:36:13;;;;;;;8.32;1.70;;;;;;;15.60;100.00;102712.97;5011873;28;20853;-73
2022/10/03 11:38:52;;;;;;;8.50;1.85;;;;;;;15.93;98.00;102725.66;5005999;28;20038;-73
2022/10/03 11:41:26;;;;;;;4.38;1.58;;;;;;;16.52;100.00;102711.47;5007692;28;20041;-73
2022/10/03 11:44:19;;;;;;;4.72;1.30;;;;;;;17.13;96.48;102713.78;5011857;28;20088;-73
2022/10/03 11:46:57;;;;;;;6.20;1.95;;;;;;;17.93;89.88;102712.88;5005364;28;20046;-73
2022/10/03 11:50:03;;;;;;;4.25;1.30;;;;;;;18.65;86.84;102719.78;5012231;28;20018;-74
2022/10/03 11:53:02;;;;;;;5.72;1.30;;;;;;;19.52;92.60;102719.06;5012365;28;20057;-74
2022/10/03 11:55:37;;;;;;;6.07;1.40;;;;;;;20.30;70.61;102718.25;5013853;28;20038;-74
2022/10/03 11:58:33;;;;;;;4.97;1.60;;;;;;;20.78;79.31;102721.00;5014018;28;20030;-74
2022/10/03 12:01:06;;;;;;;4.88;1.33;;;;;;;20.63;65.86;102721.53;5008052;28;20026;-74
2022/10/03 12:03:42;;;;;;;5.07;1.38;;;;;;;19.63;72.73;102711.66;5013622;28;20539;-74
2022/10/03 12:09:44;;;;;;;6.65;1.67;;;;;;;18.55;81.22;102717.47;5013051;28;20107;-74
2022/10/03 12:12:42;;;;;;;6.65;1.40;;;;;;;18.31;88.69;102717.22;5002297;28;20026;-74
2022/10/03 12:15:44;;;;;;;7.03;1.58;;;;;;;17.91;87.31;102712.91;5010584;28;20026;-73
2022/10/03 12:18:39;;;;;;;5.90;1.27;;;;;;;17.42;90.73;102721.94;5013250;28;20025;-74
2022/10/03 12:21:15;;;;;;;5.75;1.40;;;;;;;17.06;86.70;102713.91;4979735;28;20069;-73
2022/10/03 12:24:11;;;;;;;5.35;1.40;;;;;;;17.42;89.70;102710.53;5013213;28;20553;-73
2022/10/03 12:26:42;;;;;;;2.83;1.13;;;;;;;18.68;84.60;102697.72;5011260;28;20605;-73
2022/10/03 12:29:11;;;;;;;5.93;1.48;;;;;;;19.42;74.29;102702.59;5011192;28;20370;-73
2022/10/03 12:31:52;;;;;;;5.47;1.75;;;;;;;19.38;72.60;102650.69;5012110;28;20065;-74
2022/10/03 12:34:30;;;;;;;8.30;1.50;;;;;;;19.33;77.30;102702.03;5012366;28;20481;-74
2022/10/03 12:37:13;;;;;;;8.30;2.05;;;;;;;18.65;72.07;102700.44;5011521;28;20469;-73
2022/10/03 12:40:04;;;;;;;6.05;1.67;;;;;;;17.99;76.19;102704.81;5011745;28;20113;-74
2022/10/03 12:42:34;;;;;;;6.30;1.70;;;;;;;17.48;81.56;102699.84;5012392;28;20026;-73
2022/10/03 12:45:18;;;;;;;9.20;1.75;;;;;;;17.22;81.92;102696.03;5013302;28;20429;-73
2022/10/03 12:47:57;;;;;;;7.70;1.88;;;;;;;17.00;82.41;102686.84;5000232;28;20045;-73
2022/10/03 12:50:35;;;;;;;10.60;2.22;;;;;;;16.89;88.11;102684.44;5011850;28;20018;-73
2022/10/03 12:53:19;;;;;;;6.47;1.80;;;;;;;16.79;88.90;102693.44;5012927;28;20386;-73
2022/10/03 12:56:05;;;;;;;8.75;2.13;;;;;;;16.73;87.45;102681.22;5012869;28;20056;-73